Terminal Aerodrome Forecast
Issued by NWS

Home | Current Version | Previous Version | Text Only | Print | Product List | Glossary On
Versions: 1 2 3 4 5 6 7 8 9
081
FTUS43 KLSX 252320
TAFUIN
TAF
KUIN 252320Z 2600/2624 16012G18KT P6SM BKN120
     FM260600 17011KT P6SM -SHRA VCTS BKN090CB
     FM261000 20008KT P6SM OVC030
     FM261800 23009KT P6SM -SHRA VCTS OVC015CB=

USA.gov is the U.S. government's official web portal to all federal, state and local government web resources and services.